createdAt,value
2018-06-03T00:00:17.329Z,19.62
2018-06-03T00:03:41.705Z,19.48
2018-06-03T00:07:06.452Z,19.43
2018-06-03T00:10:31.178Z,19.40
2018-06-03T00:13:55.930Z,19.52
2018-06-03T00:17:20.665Z,19.42
2018-06-03T00:21:56.678Z,19.49
2018-06-03T00:25:21.434Z,19.45
2018-06-03T00:28:46.190Z,19.39
2018-06-03T00:32:11.032Z,19.31
2018-06-03T00:35:51.299Z,19.65
2018-06-03T00:39:16.142Z,19.18
2018-06-03T00:42:40.886Z,19.14
2018-06-03T00:46:05.782Z,19.01
2018-06-03T00:49:30.514Z,19.15
2018-06-03T00:52:55.204Z,19.36
2018-06-03T00:56:36.312Z,19.23
2018-06-03T01:00:01.103Z,19.23
2018-06-03T01:03:25.927Z,19.04
2018-06-03T01:06:50.844Z,19.14
2018-06-03T01:10:15.575Z,18.94
2018-06-03T01:13:39.905Z,18.79
2018-06-03T01:17:04.618Z,19.22
2018-06-03T01:20:29.373Z,19.26
2018-06-03T01:23:54.268Z,18.94
2018-06-03T01:27:19.127Z,18.63
2018-06-03T01:30:43.968Z,18.69
2018-06-03T01:34:08.742Z,18.73
2018-06-03T01:37:33.572Z,18.68
2018-06-03T01:40:58.405Z,18.54
2018-06-03T01:44:23.252Z,18.32
2018-06-03T01:47:47.961Z,18.41
2018-06-03T01:51:12.425Z,18.30
2018-06-03T01:54:37.272Z,18.13
2018-06-03T01:58:02.081Z,18.58
2018-06-03T02:01:26.794Z,18.40
2018-06-03T02:04:51.633Z,18.25
2018-06-03T02:08:16.457Z,18.21
2018-06-03T02:11:41.151Z,18.19
2018-06-03T02:15:05.894Z,18.31
2018-06-03T02:18:30.656Z,18.17
2018-06-03T02:21:55.404Z,18.12
2018-06-03T02:25:20.213Z,18.51
2018-06-03T02:28:45.011Z,18.43
2018-06-03T02:32:09.793Z,18.33
2018-06-03T02:35:34.555Z,18.35
2018-06-03T02:38:58.966Z,18.15
2018-06-03T02:42:23.857Z,18.11
2018-06-03T02:45:49.613Z,18.23
2018-06-03T02:49:14.235Z,18.00
2018-06-03T02:52:39.144Z,18.15
2018-06-03T02:56:04.141Z,17.79
2018-06-03T02:59:29.000Z,18.01
2018-06-03T03:02:53.488Z,18.06
2018-06-03T03:06:18.306Z,17.68
2018-06-03T03:09:43.320Z,18.22
2018-06-03T03:13:08.143Z,17.85
2018-06-03T03:16:32.941Z,17.81
2018-06-03T03:19:57.940Z,17.75
2018-06-03T03:23:22.852Z,17.62
2018-06-03T03:26:47.690Z,17.85
2018-06-03T03:30:12.457Z,17.63
2018-06-03T03:33:37.317Z,17.63
2018-06-03T03:37:02.140Z,17.74
2018-06-03T03:40:27.272Z,17.63
2018-06-03T03:43:52.200Z,17.72
2018-06-03T03:47:17.208Z,17.65
2018-06-03T03:50:42.112Z,17.83
2018-06-03T03:54:07.140Z,18.14
2018-06-03T03:57:31.918Z,17.93
2018-06-03T04:00:56.291Z,17.61
2018-06-03T04:04:21.042Z,17.63
2018-06-03T04:07:45.409Z,17.93
2018-06-03T04:11:10.100Z,17.88
2018-06-03T04:14:34.807Z,17.95
2018-06-03T04:17:59.509Z,18.03
2018-06-03T04:21:24.448Z,18.16
2018-06-03T04:24:49.196Z,18.13
2018-06-03T04:28:13.570Z,18.19
2018-06-03T04:31:38.411Z,18.17
2018-06-03T04:35:03.098Z,18.24
2018-06-03T04:38:27.886Z,18.02
2018-06-03T04:41:52.624Z,18.01
2018-06-03T04:45:17.027Z,18.09
2018-06-03T04:48:41.840Z,18.13
2018-06-03T04:52:06.492Z,18.18
2018-06-03T04:55:30.772Z,18.19
2018-06-03T04:58:55.661Z,18.41
2018-06-03T05:02:20.305Z,18.38
2018-06-03T05:05:45.042Z,18.33
2018-06-03T05:09:09.448Z,18.57
2018-06-03T05:12:34.720Z,18.68
2018-06-03T05:15:59.054Z,18.71
2018-06-03T05:19:23.548Z,18.65
2018-06-03T05:22:48.264Z,18.51
2018-06-03T05:26:12.995Z,18.68
2018-06-03T05:29:38.017Z,18.57
2018-06-03T05:33:02.742Z,18.63
2018-06-03T05:36:27.091Z,18.81
2018-06-03T05:39:51.752Z,18.65
2018-06-03T05:43:16.546Z,18.77
2018-06-03T05:46:40.998Z,18.99
2018-06-03T05:50:05.423Z,19.08
2018-06-03T05:53:30.165Z,19.10
2018-06-03T05:56:54.973Z,19.16
2018-06-03T06:00:19.664Z,19.14
2018-06-03T06:03:44.426Z,19.18
2018-06-03T06:07:09.283Z,19.39
2018-06-03T06:10:33.969Z,19.30
2018-06-03T06:13:58.638Z,19.45
2018-06-03T06:17:23.716Z,19.62
2018-06-03T06:20:48.132Z,19.68
2018-06-03T06:24:13.142Z,19.62
2018-06-03T06:27:37.556Z,19.76
2018-06-03T06:31:02.303Z,19.75
2018-06-03T06:34:26.915Z,19.75
2018-06-03T06:37:51.630Z,19.83
2018-06-03T06:41:16.349Z,20.11
2018-06-03T06:44:40.837Z,20.04
2018-06-03T06:48:05.416Z,20.38
2018-06-03T06:51:30.123Z,20.21
2018-06-03T06:54:54.765Z,20.19
2018-06-03T06:58:19.431Z,20.45
2018-06-03T07:01:44.236Z,20.73
2018-06-03T07:05:08.976Z,20.53
2018-06-03T07:08:33.949Z,20.57
2018-06-03T07:11:58.846Z,20.83
2018-06-03T07:15:23.712Z,20.98
2018-06-03T07:18:48.502Z,20.99
2018-06-03T07:22:13.240Z,21.25
2018-06-03T07:25:37.933Z,21.28
2018-06-03T07:29:02.414Z,21.19
2018-06-03T07:32:27.143Z,21.40
2018-06-03T07:35:51.894Z,21.61
2018-06-03T07:39:16.660Z,21.87
2018-06-03T07:42:42.011Z,21.66
2018-06-03T07:46:06.438Z,22.12
2018-06-03T07:57:25.308Z,22.56
2018-06-03T08:00:50.077Z,22.64
2018-06-03T08:04:14.690Z,22.70
2018-06-03T08:07:39.470Z,23.00
2018-06-03T08:11:04.266Z,22.96
2018-06-03T08:14:29.186Z,22.78
2018-06-03T08:17:53.963Z,22.92
2018-06-03T08:21:18.674Z,23.12
2018-06-03T08:24:43.434Z,23.02
2018-06-03T08:28:07.763Z,22.95
2018-06-03T08:31:32.434Z,23.52
2018-06-03T08:34:57.185Z,23.49
2018-06-03T08:38:21.769Z,23.65
2018-06-03T08:41:46.442Z,24.02
2018-06-03T08:45:11.155Z,24.01
2018-06-03T08:48:35.863Z,23.70
2018-06-03T08:52:00.561Z,24.19
2018-06-03T08:55:29.085Z,24.22
2018-06-03T08:58:54.097Z,23.72
2018-06-03T09:02:18.790Z,23.99
2018-06-03T09:05:43.622Z,24.03
2018-06-03T09:09:08.028Z,24.27
2018-06-03T09:12:32.803Z,24.22
2018-06-03T09:15:59.043Z,24.16
2018-06-03T09:19:23.867Z,24.67
2018-06-03T09:22:48.606Z,24.59
2018-06-03T09:26:13.343Z,24.41
2018-06-03T09:29:38.138Z,24.38
2018-06-03T09:33:02.499Z,24.67
2018-06-03T09:36:27.265Z,24.64
2018-06-03T09:39:52.093Z,24.11
2018-06-03T09:43:16.891Z,24.38
2018-06-03T09:46:41.732Z,24.34
2018-06-03T09:50:06.785Z,24.58
2018-06-03T09:53:31.535Z,24.57
2018-06-03T09:56:56.250Z,24.64
2018-06-03T10:00:25.149Z,24.73
2018-06-03T10:03:49.816Z,24.72
2018-06-03T10:07:14.957Z,25.12
2018-06-03T10:10:39.849Z,25.01
2018-06-03T10:14:04.684Z,25.32
2018-06-03T10:17:29.523Z,25.28
2018-06-03T10:20:54.294Z,25.61
2018-06-03T10:24:19.092Z,25.67
2018-06-03T10:27:43.905Z,25.77
2018-06-03T10:31:08.735Z,26.45
2018-06-03T10:34:33.829Z,25.49
2018-06-03T10:37:58.803Z,25.32
2018-06-03T10:41:23.819Z,25.53
2018-06-03T10:44:48.755Z,26.42
2018-06-03T10:48:13.265Z,25.73
2018-06-03T10:51:37.752Z,26.21
2018-06-03T10:55:02.602Z,26.14
2018-06-03T10:58:27.483Z,26.17
2018-06-03T11:01:51.933Z,26.10
2018-06-03T11:05:16.828Z,25.66
2018-06-03T11:08:41.659Z,26.25
2018-06-03T11:12:06.576Z,25.49
2018-06-03T11:15:31.445Z,25.56
2018-06-03T11:18:56.294Z,25.61
2018-06-03T11:22:21.280Z,25.82
2018-06-03T11:25:46.242Z,25.63
2018-06-03T11:29:11.238Z,25.76
2018-06-03T11:32:36.278Z,25.71
2018-06-03T11:36:00.652Z,25.82
2018-06-03T11:39:25.640Z,26.17
2018-06-03T11:42:50.422Z,25.66
2018-06-03T11:46:15.213Z,26.14
2018-06-03T11:49:39.914Z,26.28
2018-06-03T11:53:04.818Z,26.81
2018-06-03T11:56:40.293Z,26.72
2018-06-03T12:00:05.147Z,26.53
2018-06-03T12:03:30.007Z,26.76
2018-06-03T12:06:54.833Z,26.67
2018-06-03T12:10:20.295Z,26.57
2018-06-03T12:13:45.303Z,26.90
2018-06-03T12:18:34.537Z,27.30
2018-06-03T12:21:59.372Z,26.85
2018-06-03T12:25:24.275Z,27.55
2018-06-03T12:28:49.231Z,27.31
2018-06-03T12:32:13.960Z,27.49
2018-06-03T12:35:38.847Z,27.62
2018-06-03T12:39:04.352Z,27.16
2018-06-03T12:42:29.241Z,27.60
2018-06-03T12:45:54.074Z,27.40
2018-06-03T12:49:18.905Z,28.37
2018-06-03T12:52:43.732Z,28.33
2018-06-03T12:56:08.540Z,28.86
2018-06-03T12:59:33.791Z,28.17
2018-06-03T13:02:58.718Z,28.02
2018-06-03T13:06:24.401Z,27.95
2018-06-03T13:09:48.863Z,27.90
2018-06-03T13:13:14.035Z,28.27
2018-06-03T13:16:38.433Z,28.27
2018-06-03T13:20:03.303Z,28.11
2018-06-03T13:23:28.201Z,28.07
2018-06-03T13:27:18.328Z,27.73
2018-06-03T13:31:38.237Z,28.02
2018-06-03T13:35:03.017Z,28.33
2018-06-03T13:38:27.818Z,28.37
2018-06-03T13:41:52.813Z,27.83
2018-06-03T13:45:17.835Z,28.58
2018-06-03T13:48:42.771Z,28.55
2018-06-03T13:52:07.617Z,28.68
2018-06-03T13:55:33.198Z,28.93
2018-06-03T13:58:57.922Z,28.31
2018-06-03T14:02:22.725Z,28.67
2018-06-03T14:05:47.532Z,29.38
2018-06-03T14:09:12.387Z,28.76
2018-06-03T14:12:43.613Z,29.03
2018-06-03T14:16:08.339Z,28.21
2018-06-03T14:19:32.789Z,29.19
2018-06-03T14:22:57.605Z,28.60
2018-06-03T14:26:23.399Z,28.56
2018-06-03T14:29:48.340Z,28.83
2018-06-03T14:33:12.848Z,29.47
2018-06-03T14:36:37.586Z,29.26
2018-06-03T14:40:02.357Z,29.40
2018-06-03T14:43:27.054Z,29.54
2018-06-03T14:46:51.851Z,29.76
2018-06-03T14:50:16.569Z,29.39
2018-06-03T14:53:41.584Z,29.37
2018-06-03T14:57:06.315Z,29.87
2018-06-03T15:00:30.930Z,30.16
2018-06-03T15:03:55.665Z,29.65
2018-06-03T15:07:20.407Z,30.02
2018-06-03T15:10:45.098Z,30.70
2018-06-03T15:14:09.527Z,30.61
2018-06-03T15:17:34.249Z,30.75
2018-06-03T15:20:58.942Z,31.10
2018-06-03T15:24:25.105Z,30.55
2018-06-03T15:27:49.951Z,30.43
2018-06-03T15:31:14.669Z,30.82
2018-06-03T15:34:39.393Z,30.65
2018-06-03T15:38:04.114Z,30.45
2018-06-03T15:41:28.810Z,30.59
2018-06-03T15:44:53.708Z,31.12
2018-06-03T15:48:18.522Z,31.42
2018-06-03T15:51:43.715Z,31.32
2018-06-03T15:55:08.560Z,30.71
2018-06-03T15:58:33.347Z,29.54
2018-06-03T16:01:58.173Z,29.96
2018-06-03T16:05:23.189Z,31.07
2018-06-03T16:08:48.000Z,30.61
2018-06-03T16:12:25.295Z,30.00
2018-06-03T16:15:50.857Z,29.41
2018-06-03T16:19:15.794Z,29.21
2018-06-03T16:22:44.944Z,29.71
2018-06-03T16:26:09.899Z,29.37
2018-06-03T16:29:34.604Z,29.19
2018-06-03T16:32:59.306Z,29.32
2018-06-03T16:36:24.383Z,29.30
2018-06-03T16:39:49.251Z,29.46
2018-06-03T16:43:14.199Z,29.70
2018-06-03T16:46:39.278Z,29.82
2018-06-03T16:50:04.081Z,29.63
2018-06-03T16:53:29.479Z,28.96
2018-06-03T16:56:54.317Z,29.36
2018-06-03T17:00:19.044Z,29.20
2018-06-03T17:03:49.475Z,29.34
2018-06-03T17:07:18.498Z,29.26
2018-06-03T17:10:43.801Z,29.15
2018-06-03T17:14:09.987Z,29.19
2018-06-03T17:17:36.526Z,28.85
2018-06-03T17:21:01.958Z,28.82
2018-06-03T17:24:27.615Z,29.08
2018-06-03T17:27:54.919Z,29.26
2018-06-03T17:31:20.278Z,29.31
2018-06-03T17:34:50.632Z,28.99
2018-06-03T17:38:15.586Z,28.55
2018-06-03T17:41:40.713Z,28.76
2018-06-03T17:45:06.265Z,28.22
2018-06-03T17:48:31.866Z,27.78
2018-06-03T17:51:58.402Z,27.74
2018-06-03T17:55:22.954Z,27.56
2018-06-03T17:58:47.786Z,27.45
2018-06-03T18:02:12.614Z,27.60
2018-06-03T18:05:37.376Z,27.55
2018-06-03T18:09:02.209Z,27.37
2018-06-03T18:12:30.655Z,27.14
2018-06-03T18:15:55.530Z,27.03
2018-06-03T18:19:20.982Z,27.14
2018-06-03T18:22:47.361Z,26.88
2018-06-03T18:27:41.658Z,26.66
2018-06-03T18:31:07.294Z,26.66
2018-06-03T18:34:32.828Z,26.56
2018-06-03T18:37:59.952Z,26.49
2018-06-03T18:41:25.604Z,26.44
2018-06-03T18:44:52.180Z,26.36
2018-06-03T18:48:19.135Z,26.32
2018-06-03T18:51:44.873Z,26.19
2018-06-03T18:55:09.919Z,26.15
2018-06-03T18:58:34.664Z,26.02
2018-06-03T19:01:59.536Z,25.98
2018-06-03T19:05:24.704Z,25.81
2018-06-03T19:08:49.147Z,25.60
2018-06-03T19:12:27.294Z,25.54
2018-06-03T19:15:57.614Z,25.42
2018-06-03T19:19:22.771Z,25.43
2018-06-03T19:22:48.391Z,25.43
2018-06-03T19:26:15.090Z,25.32
2018-06-03T19:29:41.028Z,25.36
2018-06-03T19:33:08.500Z,25.12
2018-06-03T19:36:32.898Z,25.10
2018-06-03T19:39:57.997Z,25.12
2018-06-03T19:43:22.921Z,25.19
2018-06-03T19:46:47.742Z,25.09
2018-06-03T19:50:12.555Z,24.97
2018-06-03T19:53:37.293Z,24.96
2018-06-03T19:57:02.415Z,24.96
2018-06-03T20:00:30.006Z,24.87
2018-06-03T20:03:54.509Z,24.85
2018-06-03T20:07:19.199Z,24.74
2018-06-03T20:10:45.729Z,24.65
2018-06-03T20:14:11.010Z,24.68
2018-06-03T20:17:36.374Z,24.54
2018-06-03T20:21:01.532Z,24.74
2018-06-03T20:24:26.449Z,24.62
2018-06-03T20:27:50.974Z,24.49
2018-06-03T20:31:16.072Z,24.50
2018-06-03T20:34:41.038Z,24.35
2018-06-03T20:38:06.398Z,24.39
2018-06-03T20:41:33.661Z,24.29
2018-06-03T20:44:58.508Z,24.35
2018-06-03T20:48:23.470Z,24.19
2018-06-03T20:51:48.516Z,24.07
2018-06-03T20:55:13.285Z,24.09
2018-06-03T20:58:42.435Z,24.00
2018-06-03T21:02:11.321Z,23.92
2018-06-03T21:05:36.266Z,23.86
2018-06-03T21:09:00.772Z,23.85
2018-06-03T21:12:26.040Z,23.60
2018-06-03T21:15:51.095Z,23.53
2018-06-03T21:19:15.937Z,23.44
2018-06-03T21:22:40.876Z,23.50
2018-06-03T21:26:05.298Z,23.46
2018-06-03T21:29:30.215Z,23.49
2018-06-03T21:32:55.128Z,23.55
2018-06-03T21:36:19.885Z,23.54
2018-06-03T21:39:44.228Z,23.49
2018-06-03T21:43:09.055Z,23.46
2018-06-03T21:46:33.710Z,23.31
2018-06-03T21:49:58.674Z,23.25
2018-06-03T21:53:24.410Z,23.12
2018-06-03T21:56:49.084Z,23.26
2018-06-03T22:00:13.827Z,23.46
2018-06-03T22:03:39.156Z,23.24
2018-06-03T22:07:04.068Z,23.31
2018-06-03T22:10:28.843Z,23.28
2018-06-03T22:13:53.616Z,23.27
2018-06-03T22:17:18.511Z,23.21
2018-06-03T22:20:43.207Z,23.12
2018-06-03T22:24:07.888Z,23.16
2018-06-03T22:27:32.631Z,23.17
2018-06-03T22:30:57.413Z,23.12
2018-06-03T22:34:22.240Z,23.24
2018-06-03T22:37:47.093Z,23.10
2018-06-03T22:41:11.883Z,23.07
2018-06-03T22:44:36.680Z,22.96
2018-06-03T22:48:01.435Z,22.92
2018-06-03T22:51:26.145Z,22.83
2018-06-03T22:54:51.020Z,22.80
2018-06-03T22:58:15.812Z,22.53
2018-06-03T23:01:40.710Z,22.46
2018-06-03T23:05:05.292Z,22.39
2018-06-03T23:08:31.620Z,22.25
2018-06-03T23:11:56.395Z,22.14
2018-06-03T23:15:21.197Z,22.05
2018-06-03T23:18:45.690Z,22.09
2018-06-03T23:22:10.502Z,22.00
2018-06-03T23:25:35.234Z,21.89
2018-06-03T23:29:00.947Z,21.80
2018-06-03T23:32:25.675Z,21.88
2018-06-03T23:35:50.423Z,21.69
2018-06-03T23:39:15.169Z,21.50
2018-06-03T23:42:39.853Z,21.24
2018-06-03T23:46:04.578Z,21.28
2018-06-03T23:49:29.290Z,21.16
2018-06-03T23:52:54.110Z,20.93
2018-06-03T23:56:19.143Z,21.14
2018-06-03T23:59:44.027Z,21.14
